createdAt,value
2016-03-23T00:00:03.075Z,958.51
2016-03-23T00:01:03.063Z,958.53
2016-03-23T00:02:03.065Z,958.49
2016-03-23T00:03:03.068Z,958.48
2016-03-23T00:04:03.070Z,958.54
2016-03-23T00:05:03.073Z,958.5
2016-03-23T00:06:03.059Z,958.51
2016-03-23T00:07:03.063Z,958.51
2016-03-23T00:08:03.065Z,958.49
2016-03-23T00:09:03.067Z,958.47
2016-03-23T00:10:03.070Z,958.48
2016-03-23T00:11:03.058Z,958.45
2016-03-23T00:12:03.061Z,958.41
2016-03-23T00:13:03.063Z,958.4
2016-03-23T00:14:03.066Z,958.44
2016-03-23T00:15:03.053Z,958.38
2016-03-23T00:16:03.055Z,958.39
2016-03-23T00:17:03.059Z,958.38
2016-03-23T00:18:03.061Z,958.34
2016-03-23T00:19:03.064Z,958.36
2016-03-23T00:20:03.066Z,958.34
2016-03-23T00:21:03.069Z,958.33
2016-03-23T00:22:03.057Z,958.36
2016-03-23T00:23:03.059Z,958.29
2016-03-23T00:24:03.063Z,958.33
2016-03-23T00:25:03.065Z,958.33
2016-03-23T00:26:03.068Z,958.27
2016-03-23T00:27:03.054Z,958.3
2016-03-23T00:28:03.057Z,958.3
2016-03-23T00:29:03.060Z,958.29
2016-03-23T00:30:03.052Z,958.29
2016-03-23T00:31:03.053Z,958.32
2016-03-23T00:32:03.055Z,958.28
2016-03-23T00:33:03.058Z,958.29
2016-03-23T00:34:03.045Z,958.27
2016-03-23T00:35:03.048Z,958.28
2016-03-23T00:36:03.050Z,958.28
2016-03-23T00:37:03.053Z,958.23
2016-03-23T00:38:03.056Z,958.23
2016-03-23T00:39:03.043Z,958.22
2016-03-23T00:40:03.061Z,958.24
2016-03-23T00:41:03.048Z,958.23
2016-03-23T00:42:03.051Z,958.21
2016-03-23T00:43:03.053Z,958.18
2016-03-23T00:44:03.040Z,958.22
2016-03-23T00:45:03.042Z,958.17
2016-03-23T00:46:03.045Z,958.17
2016-03-23T00:47:03.048Z,958.13
2016-03-23T00:48:03.050Z,958.12
2016-03-23T00:49:03.054Z,958.09
2016-03-23T00:50:03.041Z,958.08
2016-03-23T00:51:03.044Z,958.07
2016-03-23T00:52:03.047Z,958.11
2016-03-23T00:53:03.049Z,958.06
2016-03-23T00:54:03.052Z,958.04
2016-03-23T00:55:03.038Z,958.08
2016-03-23T00:56:03.042Z,958.06
2016-03-23T00:57:03.044Z,958.05
2016-03-23T00:58:03.046Z,958.09
2016-03-23T00:59:03.033Z,958.04
2016-03-23T01:00:03.036Z,958.05
2016-03-23T01:01:03.039Z,958.01
2016-03-23T01:02:03.042Z,958.03
2016-03-23T01:03:03.045Z,958.01
2016-03-23T01:04:03.032Z,957.99
2016-03-23T01:05:03.034Z,958
2016-03-23T01:06:03.037Z,958.01
2016-03-23T01:07:03.040Z,958.03
2016-03-23T01:08:03.042Z,958.01
2016-03-23T01:09:03.045Z,958.02
2016-03-23T01:10:03.047Z,958.02
2016-03-23T01:11:03.035Z,958.02
2016-03-23T01:12:03.037Z,958.01
2016-03-23T01:13:03.040Z,958.04
2016-03-23T01:14:03.028Z,958.08
2016-03-23T01:15:03.030Z,958.01
2016-03-23T01:16:03.033Z,958.03
2016-03-23T01:17:03.036Z,958.04
2016-03-23T01:18:03.023Z,958.01
2016-03-23T01:19:03.025Z,958.02
2016-03-23T01:20:03.027Z,958.06
2016-03-23T01:21:03.031Z,958.02
2016-03-23T01:22:03.017Z,958.02
2016-03-23T01:23:03.020Z,958
2016-03-23T01:24:03.023Z,957.98
2016-03-23T01:25:03.057Z,957.98
2016-03-23T01:26:03.028Z,957.96
2016-03-23T01:27:03.031Z,957.93
2016-03-23T01:28:03.019Z,957.96
2016-03-23T01:29:03.021Z,957.97
2016-03-23T01:30:03.023Z,957.94
2016-03-23T01:31:03.027Z,957.93
2016-03-23T01:32:03.029Z,957.95
2016-03-23T01:33:03.016Z,957.9
2016-03-23T01:34:03.019Z,957.95
2016-03-23T01:35:03.022Z,957.95
2016-03-23T01:36:03.008Z,957.94
2016-03-23T01:37:03.010Z,957.94
2016-03-23T01:38:03.013Z,957.93
2016-03-23T01:39:03.016Z,957.94
2016-03-23T01:40:03.019Z,957.96
2016-03-23T01:41:03.006Z,957.92
2016-03-23T01:42:03.009Z,957.89
2016-03-23T01:43:03.012Z,957.91
2016-03-23T01:44:03.014Z,957.93
2016-03-23T01:45:03.017Z,957.91
2016-03-23T01:46:03.004Z,957.9
2016-03-23T01:47:03.006Z,957.85
2016-03-23T01:48:03.009Z,957.88
2016-03-23T01:49:03.012Z,957.85
2016-03-23T01:50:02.999Z,957.86
2016-03-23T01:51:03.017Z,957.81
2016-03-23T01:52:03.005Z,957.79
2016-03-23T01:53:03.008Z,957.82
2016-03-23T01:54:03.025Z,957.79
2016-03-23T01:55:03.013Z,957.79
2016-03-23T01:56:03.000Z,957.77
2016-03-23T01:57:03.018Z,957.77
2016-03-23T01:58:03.005Z,957.76
2016-03-23T01:59:03.007Z,957.72
2016-03-23T02:00:02.995Z,957.77
2016-03-23T02:01:02.997Z,957.74
2016-03-23T02:02:02.999Z,957.72
2016-03-23T02:03:03.019Z,957.75
2016-03-23T02:04:03.005Z,957.7
2016-03-23T02:05:02.993Z,957.67
2016-03-23T02:06:03.011Z,957.68
2016-03-23T02:07:02.999Z,957.69
2016-03-23T02:08:03.079Z,957.66
2016-03-23T02:09:02.979Z,957.64
2016-03-23T02:10:02.979Z,957.66
2016-03-23T02:11:02.990Z,957.65
2016-03-23T02:12:02.984Z,957.62
2016-03-23T02:13:02.988Z,957.67
2016-03-23T02:14:03.022Z,957.6
2016-03-23T02:15:02.978Z,957.57
2016-03-23T02:16:02.980Z,957.62
2016-03-23T02:17:02.998Z,957.61
2016-03-23T02:18:02.986Z,957.59
2016-03-23T02:19:02.972Z,957.55
2016-03-23T02:20:02.975Z,957.54
2016-03-23T02:21:02.968Z,957.6
2016-03-23T02:22:02.971Z,957.56
2016-03-23T02:23:02.973Z,957.55
2016-03-23T02:24:02.976Z,957.54
2016-03-23T02:25:02.963Z,957.58
2016-03-23T02:26:02.967Z,957.56
2016-03-23T02:27:02.969Z,957.52
2016-03-23T02:28:02.971Z,957.53
2016-03-23T02:29:02.989Z,957.54
2016-03-23T02:30:02.977Z,957.53
2016-03-23T02:31:02.963Z,957.49
2016-03-23T02:32:02.967Z,957.51
2016-03-23T02:33:02.969Z,957.5
2016-03-23T02:34:02.956Z,957.47
2016-03-23T02:35:02.958Z,957.49
2016-03-23T02:36:02.961Z,957.48
2016-03-23T02:37:02.964Z,957.44
2016-03-23T02:38:02.951Z,957.43
2016-03-23T02:39:02.969Z,957.46
2016-03-23T02:40:02.956Z,957.43
2016-03-23T02:41:02.960Z,957.41
2016-03-23T02:42:02.962Z,957.41
2016-03-23T02:43:02.965Z,957.39
2016-03-23T02:44:02.952Z,957.37
2016-03-23T02:45:02.985Z,957.41
2016-03-23T02:46:02.957Z,957.38
2016-03-23T02:47:02.959Z,957.38
2016-03-23T02:48:02.948Z,957.31
2016-03-23T02:49:02.950Z,957.31
2016-03-23T02:50:02.953Z,957.29
2016-03-23T02:51:02.955Z,957.24
2016-03-23T02:52:02.942Z,957.25
2016-03-23T02:53:02.945Z,957.31
2016-03-23T02:54:02.947Z,957.26
2016-03-23T02:55:02.951Z,957.24
2016-03-23T02:56:02.937Z,957.28
2016-03-23T02:57:02.940Z,957.25
2016-03-23T02:58:02.943Z,957.3
2016-03-23T02:59:02.977Z,957.21
2016-03-23T03:00:02.948Z,957.25
2016-03-23T03:01:02.950Z,957.19
2016-03-23T03:02:02.938Z,957.19
2016-03-23T03:03:02.941Z,957.2
2016-03-23T03:04:02.958Z,957.2
2016-03-23T03:05:02.946Z,957.15
2016-03-23T03:06:02.933Z,957.22
2016-03-23T03:07:02.967Z,957.16
2016-03-23T03:08:02.938Z,957.15
2016-03-23T03:09:02.941Z,957.14
2016-03-23T03:10:02.944Z,957.19
2016-03-23T03:11:02.947Z,957.19
2016-03-23T03:12:02.933Z,957.14
2016-03-23T03:13:02.935Z,957.12
2016-03-23T03:14:02.938Z,957.15
2016-03-23T03:15:02.941Z,957.12
2016-03-23T03:16:02.928Z,957.1
2016-03-23T03:17:02.932Z,957.09
2016-03-23T03:18:02.934Z,957.07
2016-03-23T03:19:02.936Z,957.09
2016-03-23T03:20:02.923Z,957.06
2016-03-23T03:21:02.926Z,957.05
2016-03-23T03:22:02.929Z,957.03
2016-03-23T03:23:02.931Z,957.04
2016-03-23T03:24:02.919Z,957.04
2016-03-23T03:25:02.922Z,957.07
2016-03-23T03:26:02.924Z,957.07
2016-03-23T03:27:02.927Z,957.09
2016-03-23T03:28:02.914Z,957.08
2016-03-23T03:29:02.933Z,957.09
2016-03-23T03:30:02.935Z,957.13
2016-03-23T03:31:02.923Z,957.1
2016-03-23T03:32:02.925Z,957.12
2016-03-23T03:33:02.913Z,957.12
2016-03-23T03:34:02.915Z,957.13
2016-03-23T03:35:03.370Z,957.12
2016-03-23T03:36:02.905Z,957.11
2016-03-23T03:37:02.908Z,957.1
2016-03-23T03:38:02.911Z,957.08
2016-03-23T03:39:02.913Z,957.09
2016-03-23T03:40:02.916Z,957.06
2016-03-23T03:41:02.919Z,957.06
2016-03-23T03:42:02.905Z,957.06
2016-03-23T03:43:02.909Z,957.11
2016-03-23T03:44:02.911Z,957.07
2016-03-23T03:45:02.914Z,957.09
2016-03-23T03:46:02.900Z,957.06
2016-03-23T03:47:02.903Z,957.08
2016-03-23T03:48:02.906Z,957.09
2016-03-23T03:49:02.908Z,957.14
2016-03-23T03:50:02.896Z,957.12
2016-03-23T03:51:02.899Z,957.1
2016-03-23T03:52:02.901Z,957.12
2016-03-23T03:53:02.904Z,957.09
2016-03-23T03:54:02.891Z,957.08
2016-03-23T03:55:02.894Z,957.1
2016-03-23T03:56:02.896Z,957.04
2016-03-23T03:57:02.899Z,957.11
2016-03-23T03:58:02.887Z,957.09
2016-03-23T03:59:02.920Z,957.08
2016-03-23T04:00:02.892Z,957.11
2016-03-23T04:01:02.895Z,957.13
2016-03-23T04:02:02.897Z,957.1
2016-03-23T04:03:02.900Z,957.11
2016-03-23T04:04:02.887Z,957.07
2016-03-23T04:05:02.890Z,957.03
2016-03-23T04:06:02.892Z,957.04
2016-03-23T04:07:02.895Z,957.04
2016-03-23T04:08:02.881Z,957.05
2016-03-23T04:09:02.884Z,957.07
2016-03-23T04:10:02.887Z,957
2016-03-23T04:11:02.889Z,957.02
2016-03-23T04:12:02.893Z,956.99
2016-03-23T04:13:02.880Z,956.98
2016-03-23T04:14:02.883Z,957
2016-03-23T04:15:02.885Z,956.97
2016-03-23T04:16:02.888Z,956.94
2016-03-23T04:17:02.875Z,956.97
2016-03-23T04:18:02.877Z,956.96
2016-03-23T04:19:02.880Z,956.94
2016-03-23T04:20:02.882Z,956.97
2016-03-23T04:21:02.885Z,956.96
2016-03-23T04:22:02.872Z,956.91
2016-03-23T04:23:02.874Z,956.9
2016-03-23T04:24:02.877Z,956.98
2016-03-23T04:25:02.880Z,956.92
2016-03-23T04:26:02.867Z,956.98
2016-03-23T04:27:02.870Z,956.99
2016-03-23T04:28:02.873Z,956.95
2016-03-23T04:29:02.875Z,956.93
2016-03-23T04:30:02.862Z,956.96
2016-03-23T04:31:02.865Z,956.96
2016-03-23T04:32:02.868Z,956.96
2016-03-23T04:33:02.870Z,956.93
2016-03-23T04:34:02.858Z,956.93
2016-03-23T04:35:02.861Z,956.95
2016-03-23T04:36:02.878Z,956.91
2016-03-23T04:37:02.866Z,956.89
2016-03-23T04:38:02.869Z,956.87
2016-03-23T04:39:02.856Z,956.87
2016-03-23T04:40:02.858Z,956.83
2016-03-23T04:41:02.861Z,956.84
2016-03-23T04:42:02.864Z,956.84
2016-03-23T04:43:02.867Z,956.84
2016-03-23T04:44:02.853Z,956.85
2016-03-23T04:45:02.856Z,956.83
2016-03-23T04:46:02.875Z,956.85
2016-03-23T04:47:02.861Z,956.84
2016-03-23T04:48:02.864Z,956.88
2016-03-23T04:49:02.852Z,956.88
2016-03-23T04:50:02.855Z,956.87
2016-03-23T04:51:02.857Z,956.85
2016-03-23T04:52:02.859Z,956.89
2016-03-23T04:53:02.847Z,956.89
2016-03-23T04:54:02.849Z,956.88
2016-03-23T04:55:02.852Z,956.86
2016-03-23T04:56:02.839Z,956.83
2016-03-23T04:57:02.857Z,956.85
2016-03-23T04:58:02.844Z,956.86
2016-03-23T04:59:02.846Z,956.8
2016-03-23T05:00:02.850Z,956.82
2016-03-23T05:01:02.852Z,956.86
2016-03-23T05:02:02.840Z,956.85
2016-03-23T05:03:02.842Z,956.8
2016-03-23T05:04:02.845Z,956.84
2016-03-23T05:05:02.831Z,956.81
2016-03-23T05:06:02.835Z,956.87
2016-03-23T05:07:02.837Z,956.88
2016-03-23T05:08:02.840Z,956.86
2016-03-23T05:09:02.842Z,956.87
2016-03-23T05:10:02.830Z,956.88
2016-03-23T05:11:02.833Z,956.87
2016-03-23T05:12:02.835Z,956.93
2016-03-23T05:13:02.838Z,956.94
2016-03-23T05:14:02.824Z,956.92
2016-03-23T05:15:02.828Z,956.95
2016-03-23T05:16:02.827Z,956.94
2016-03-23T05:17:02.820Z,956.97
2016-03-23T05:18:02.796Z,957
2016-03-23T05:19:02.804Z,957
2016-03-23T05:20:02.781Z,957.04
2016-03-23T05:21:02.775Z,957.06
2016-03-23T05:22:02.774Z,957.04
2016-03-23T05:23:02.758Z,957.05
2016-03-23T05:24:02.757Z,957.12
2016-03-23T05:25:02.757Z,957.12
2016-03-23T05:26:02.757Z,957.12
2016-03-23T05:27:02.758Z,957.16
2016-03-23T05:28:02.743Z,957.17
2016-03-23T05:29:02.744Z,957.15
2016-03-23T05:30:02.745Z,957.22
2016-03-23T05:31:02.746Z,957.19
2016-03-23T05:32:02.733Z,957.21
2016-03-23T05:33:02.736Z,957.23
2016-03-23T05:34:02.738Z,957.2
2016-03-23T05:35:02.740Z,957.19
2016-03-23T05:36:02.743Z,957.26
2016-03-23T05:37:02.730Z,957.23
2016-03-23T05:38:02.733Z,957.27
2016-03-23T05:39:02.735Z,957.29
2016-03-23T05:40:02.738Z,957.27
2016-03-23T05:41:02.725Z,957.34
2016-03-23T05:42:02.727Z,957.39
2016-03-23T05:43:02.730Z,957.38
2016-03-23T05:44:02.748Z,957.38
2016-03-23T05:45:02.720Z,957.44
2016-03-23T05:46:02.723Z,957.37
2016-03-23T05:47:02.726Z,957.36
2016-03-23T05:48:02.729Z,957.4
2016-03-23T05:49:02.731Z,957.42
2016-03-23T05:50:02.718Z,957.47
2016-03-23T05:51:02.720Z,957.46
2016-03-23T05:52:02.723Z,957.47
2016-03-23T05:53:02.726Z,957.45
2016-03-23T05:54:02.713Z,957.47
2016-03-23T05:55:02.731Z,957.46
2016-03-23T05:56:02.719Z,957.49
2016-03-23T05:57:02.721Z,957.51
2016-03-23T05:58:02.724Z,957.51
2016-03-23T05:59:02.712Z,957.55
2016-03-23T06:00:02.714Z,957.53
2016-03-23T06:01:02.717Z,957.52
2016-03-23T06:02:02.719Z,957.51
2016-03-23T06:03:02.722Z,957.51
2016-03-23T06:04:02.709Z,957.52
2016-03-23T06:05:02.711Z,957.5
2016-03-23T06:06:02.714Z,957.5
2016-03-23T06:07:02.710Z,957.53
2016-03-23T06:08:02.707Z,957.47
2016-03-23T06:09:02.710Z,957.51
2016-03-23T06:10:02.713Z,957.49
2016-03-23T06:11:02.701Z,957.48
2016-03-23T06:12:02.703Z,957.47
2016-03-23T06:13:02.706Z,957.54
2016-03-23T06:14:02.709Z,957.58
2016-03-23T06:15:02.695Z,957.6
2016-03-23T06:16:02.698Z,957.59
2016-03-23T06:17:02.700Z,957.65
2016-03-23T06:18:02.703Z,957.63
2016-03-23T06:19:02.706Z,957.64
2016-03-23T06:20:02.693Z,957.66
2016-03-23T06:21:02.696Z,957.57
2016-03-23T06:22:02.698Z,957.57
2016-03-23T06:23:02.701Z,957.61
2016-03-23T06:24:02.703Z,957.66
2016-03-23T06:25:02.691Z,957.63
2016-03-23T06:26:02.694Z,957.65
2016-03-23T06:27:02.697Z,957.61
2016-03-23T06:28:02.699Z,957.65
2016-03-23T06:29:02.686Z,957.67
2016-03-23T06:30:02.688Z,957.64
2016-03-23T06:31:02.691Z,957.65
2016-03-23T06:32:02.694Z,957.67
2016-03-23T06:33:02.682Z,957.62
2016-03-23T06:34:02.685Z,957.69
2016-03-23T06:35:02.687Z,957.71
2016-03-23T06:36:02.690Z,957.73
2016-03-23T06:37:02.692Z,957.69
2016-03-23T06:38:02.679Z,957.72
2016-03-23T06:39:02.682Z,957.76
2016-03-23T06:40:02.700Z,957.73
2016-03-23T06:41:02.687Z,957.73
2016-03-23T06:42:02.673Z,957.78
2016-03-23T06:43:02.676Z,957.77
2016-03-23T06:44:02.679Z,957.75
2016-03-23T06:45:02.682Z,957.74
2016-03-23T06:46:02.670Z,957.76
2016-03-23T06:47:02.672Z,957.72
2016-03-23T06:48:02.675Z,957.73
2016-03-23T06:49:02.677Z,957.66
2016-03-23T06:50:02.680Z,957.69
2016-03-23T06:51:02.667Z,957.7
2016-03-23T06:52:02.669Z,957.71
2016-03-23T06:53:02.672Z,957.66
2016-03-23T06:54:02.675Z,957.7
2016-03-23T06:55:02.678Z,957.69
2016-03-23T06:56:02.681Z,957.75
2016-03-23T06:57:02.668Z,957.71
2016-03-23T06:58:02.670Z,957.74
2016-03-23T06:59:02.658Z,957.7
2016-03-23T07:00:02.661Z,957.72
2016-03-23T07:01:02.663Z,957.72
2016-03-23T07:02:02.666Z,957.75
2016-03-23T07:03:02.669Z,957.72
2016-03-23T07:04:02.671Z,957.7
2016-03-23T07:05:02.658Z,957.66
2016-03-23T07:06:02.660Z,957.72
2016-03-23T07:07:02.663Z,957.69
2016-03-23T07:08:02.665Z,957.71
2016-03-23T07:09:02.654Z,957.71
2016-03-23T07:10:02.656Z,957.71
2016-03-23T07:11:02.659Z,957.7
2016-03-23T07:12:02.662Z,957.72
2016-03-23T07:13:02.664Z,957.72
2016-03-23T07:14:02.651Z,957.7
2016-03-23T07:15:02.653Z,957.71
2016-03-23T07:16:02.656Z,957.76
2016-03-23T07:17:02.659Z,957.73
2016-03-23T07:18:02.645Z,957.69
2016-03-23T07:19:02.648Z,957.71
2016-03-23T07:20:02.651Z,957.7
2016-03-23T07:21:02.653Z,957.74
2016-03-23T07:22:02.641Z,957.77
2016-03-23T07:23:02.644Z,957.73
2016-03-23T07:24:02.647Z,957.77
2016-03-23T07:25:02.650Z,957.8
2016-03-23T07:26:02.652Z,957.8
2016-03-23T07:27:02.639Z,957.83
2016-03-23T07:28:02.641Z,957.82
2016-03-23T07:29:02.644Z,957.85
2016-03-23T07:30:02.647Z,957.86
2016-03-23T07:31:02.650Z,957.86
2016-03-23T07:32:02.636Z,957.89
2016-03-23T07:33:02.639Z,957.92
2016-03-23T07:34:02.642Z,957.9
2016-03-23T07:35:02.644Z,957.87
2016-03-23T07:36:02.647Z,957.87
2016-03-23T07:37:02.635Z,957.92
2016-03-23T07:38:02.637Z,958
2016-03-23T07:39:02.640Z,957.96
2016-03-23T07:40:02.642Z,957.95
2016-03-23T07:41:02.629Z,957.92
2016-03-23T07:42:02.632Z,957.98
2016-03-23T07:43:02.634Z,957.95
2016-03-23T07:44:02.638Z,957.94
2016-03-23T07:45:02.640Z,957.94
2016-03-23T07:46:02.643Z,957.97
2016-03-23T07:47:02.631Z,957.91
2016-03-23T07:48:02.633Z,957.99
2016-03-23T07:49:02.636Z,957.93
2016-03-23T07:50:02.639Z,957.96
2016-03-23T07:51:02.625Z,957.93
2016-03-23T07:52:02.628Z,957.92
2016-03-23T07:53:02.630Z,957.89
2016-03-23T07:54:02.633Z,957.97
2016-03-23T07:55:02.636Z,957.9
2016-03-23T07:56:02.622Z,957.9
2016-03-23T07:57:02.626Z,957.91
2016-03-23T07:58:02.628Z,957.9
2016-03-23T07:59:02.631Z,957.88
2016-03-23T08:00:02.633Z,957.89
2016-03-23T08:01:02.621Z,957.85
2016-03-23T08:02:02.624Z,957.85
2016-03-23T08:03:02.627Z,957.88
2016-03-23T08:04:02.630Z,957.86
2016-03-23T08:05:02.632Z,957.86
2016-03-23T08:06:02.619Z,957.81
2016-03-23T08:07:02.621Z,957.82
2016-03-23T08:08:02.624Z,957.84
2016-03-23T08:09:02.627Z,957.85
2016-03-23T08:10:02.629Z,957.88
2016-03-23T08:11:02.616Z,957.88
2016-03-23T08:12:02.618Z,957.84
2016-03-23T08:13:02.621Z,957.91
2016-03-23T08:14:02.640Z,957.89
2016-03-23T08:15:02.643Z,957.89
2016-03-23T08:16:02.614Z,957.83
2016-03-23T08:17:02.617Z,957.9
2016-03-23T08:18:02.635Z,957.86
2016-03-23T08:19:02.622Z,957.94
2016-03-23T08:20:02.626Z,957.87
2016-03-23T08:21:02.628Z,957.87
2016-03-23T08:22:02.615Z,957.89
2016-03-23T08:23:02.617Z,957.85
2016-03-23T08:24:02.620Z,957.89
2016-03-23T08:25:02.623Z,957.89
2016-03-23T08:26:02.610Z,957.86
2016-03-23T08:27:02.613Z,957.9
2016-03-23T08:28:02.616Z,957.88
2016-03-23T08:29:02.618Z,957.87
2016-03-23T08:30:02.622Z,957.93
2016-03-23T08:31:02.624Z,957.93
2016-03-23T08:32:02.611Z,957.94
2016-03-23T08:33:02.613Z,957.89
2016-03-23T08:34:02.616Z,957.94
2016-03-23T08:35:02.619Z,957.93
2016-03-23T08:36:02.621Z,957.91
2016-03-23T08:37:02.608Z,957.96
2016-03-23T08:38:02.610Z,958.01
2016-03-23T08:39:02.614Z,957.98
2016-03-23T08:40:02.616Z,957.98
2016-03-23T08:41:02.604Z,957.94
2016-03-23T08:42:02.607Z,957.95
2016-03-23T08:43:02.609Z,958.01
2016-03-23T08:44:02.611Z,958.04
2016-03-23T08:45:02.662Z,957.95
2016-03-23T08:46:02.601Z,958.01
2016-03-23T08:47:02.604Z,958.02
2016-03-23T08:48:02.606Z,958.02
2016-03-23T08:49:02.609Z,958.03
2016-03-23T08:50:02.675Z,958.07
2016-03-23T08:51:02.614Z,958.02
2016-03-23T08:52:02.618Z,958.05
2016-03-23T08:53:02.604Z,958.11
2016-03-23T08:54:02.606Z,958.12
2016-03-23T08:55:02.609Z,958.1
2016-03-23T08:56:02.612Z,958.08
2016-03-23T08:57:02.615Z,958.11
2016-03-23T08:58:02.617Z,958.07
2016-03-23T08:59:02.605Z,958.13
2016-03-23T09:00:02.608Z,958.05
2016-03-23T09:01:02.610Z,958.08
2016-03-23T09:02:02.614Z,958.09
2016-03-23T09:03:02.600Z,958.08
2016-03-23T09:04:02.603Z,958.09
2016-03-23T09:05:02.621Z,958.05
2016-03-23T09:06:02.624Z,958.09
2016-03-23T09:07:02.611Z,958.09
2016-03-23T09:08:02.613Z,958.11
2016-03-23T09:09:02.616Z,958.14
2016-03-23T09:10:02.603Z,958.08
2016-03-23T09:11:02.607Z,958.07
2016-03-23T09:12:02.609Z,958.13
2016-03-23T09:13:02.612Z,958.13
2016-03-23T09:14:02.614Z,958.11
2016-03-23T09:15:02.617Z,958.05
2016-03-23T09:16:02.620Z,958.18
2016-03-23T09:17:02.607Z,958.06
2016-03-23T09:18:02.609Z,958.16
2016-03-23T09:19:02.612Z,958.11
2016-03-23T09:20:02.614Z,958.08
2016-03-23T09:21:02.617Z,958.02
2016-03-23T09:22:02.620Z,958.07
2016-03-23T09:23:02.622Z,958.06
2016-03-23T09:24:02.626Z,958.05
2016-03-23T09:25:02.612Z,958.08
2016-03-23T09:26:02.614Z,958.03
2016-03-23T09:27:02.617Z,958.05
2016-03-23T09:28:02.620Z,958.08
2016-03-23T09:29:02.608Z,958.08
2016-03-23T09:30:02.610Z,958.07
2016-03-23T09:31:02.613Z,958.1
2016-03-23T09:32:02.616Z,958.13
2016-03-23T09:33:02.618Z,958.16
2016-03-23T09:34:02.622Z,958.13
2016-03-23T09:35:02.624Z,958.17
2016-03-23T09:36:02.610Z,958.07
2016-03-23T09:37:02.613Z,958.07
2016-03-23T09:38:02.616Z,958.04
2016-03-23T09:39:02.619Z,958.12
2016-03-23T09:40:02.621Z,958.06
2016-03-23T09:41:02.624Z,958.11
2016-03-23T09:42:02.627Z,958.15
2016-03-23T09:43:02.613Z,958.06
2016-03-23T09:44:02.617Z,958.07
2016-03-23T09:45:02.619Z,958.09
2016-03-23T09:46:02.622Z,958.09
2016-03-23T09:47:02.625Z,958.06
2016-03-23T09:48:02.612Z,958.07
2016-03-23T09:49:02.615Z,958.09
2016-03-23T09:50:02.617Z,958.06
2016-03-23T09:51:02.619Z,958.11
2016-03-23T09:52:02.622Z,958.1
2016-03-23T09:53:02.625Z,958.13
2016-03-23T09:54:02.612Z,958.17
2016-03-23T09:55:02.631Z,958.09
2016-03-23T09:56:02.618Z,958.08
2016-03-23T09:57:02.620Z,958.13
2016-03-23T09:58:02.622Z,958.15
2016-03-23T09:59:02.626Z,958.19
2016-03-23T10:00:02.628Z,958.15
2016-03-23T10:01:02.630Z,958.12
2016-03-23T10:02:02.618Z,958.1
2016-03-23T10:03:02.621Z,958.1
2016-03-23T10:04:02.624Z,958.12
2016-03-23T10:05:02.627Z,958.04
2016-03-23T10:06:02.629Z,958.06
2016-03-23T10:07:02.632Z,958.05
2016-03-23T10:08:02.634Z,958.01
2016-03-23T10:09:02.622Z,958.03
2016-03-23T10:10:02.624Z,958.09
2016-03-23T10:11:02.627Z,958.16
2016-03-23T10:12:02.629Z,958.1
2016-03-23T10:13:02.616Z,958.03
2016-03-23T10:14:02.619Z,958.01
2016-03-23T10:15:02.621Z,958.03
2016-03-23T10:16:02.625Z,958.05
2016-03-23T10:17:02.627Z,958
2016-03-23T10:18:02.629Z,958.03
2016-03-23T10:19:02.618Z,958
2016-03-23T10:20:02.635Z,957.99
2016-03-23T10:21:02.623Z,957.94
2016-03-23T10:22:02.625Z,957.98
2016-03-23T10:23:02.628Z,957.98
2016-03-23T10:24:02.661Z,957.94
2016-03-23T10:25:02.634Z,957.94
2016-03-23T10:26:02.636Z,957.91
2016-03-23T10:27:02.638Z,957.91
2016-03-23T10:28:02.625Z,957.95
2016-03-23T10:29:02.628Z,957.98
2016-03-23T10:30:02.631Z,957.98
2016-03-23T10:31:02.633Z,957.95
2016-03-23T10:32:02.620Z,957.95
2016-03-23T10:33:02.623Z,958
2016-03-23T10:34:02.625Z,957.97
2016-03-23T10:35:02.629Z,957.99
2016-03-23T10:36:02.631Z,958.01
2016-03-23T10:37:02.633Z,957.97
2016-03-23T10:38:02.636Z,957.97
2016-03-23T10:39:02.639Z,957.97
2016-03-23T10:40:02.642Z,957.98
2016-03-23T10:41:02.629Z,957.93
2016-03-23T10:42:02.632Z,957.95
2016-03-23T10:43:02.635Z,957.93
2016-03-23T10:44:02.637Z,957.91
2016-03-23T10:45:02.641Z,957.98
2016-03-23T10:46:02.643Z,958
2016-03-23T10:47:02.630Z,957.98
2016-03-23T10:48:02.632Z,958
2016-03-23T10:49:02.635Z,957.99
2016-03-23T10:50:02.637Z,957.99
2016-03-23T10:51:02.640Z,957.99
2016-03-23T10:52:02.643Z,958.03
2016-03-23T10:53:02.645Z,958.03
2016-03-23T10:54:02.633Z,958.07
2016-03-23T10:55:02.636Z,958.02
2016-03-23T10:56:02.639Z,958.07
2016-03-23T10:57:02.641Z,958.13
2016-03-23T10:58:02.644Z,958.05
2016-03-23T10:59:02.647Z,958.12
2016-03-23T11:00:02.633Z,958.09
2016-03-23T11:01:02.641Z,958.13
2016-03-23T11:02:02.644Z,958.16
2016-03-23T11:03:02.647Z,958.16
2016-03-23T11:04:02.633Z,958.14
2016-03-23T11:05:02.636Z,958.16
2016-03-23T11:06:02.638Z,958.14
2016-03-23T11:07:02.641Z,958.18
2016-03-23T11:08:02.644Z,958.18
2016-03-23T11:09:02.647Z,958.17
2016-03-23T11:10:02.649Z,958.13
2016-03-23T11:11:02.637Z,958.12
2016-03-23T11:12:02.640Z,958.16
2016-03-23T11:13:02.642Z,958.16
2016-03-23T11:14:02.645Z,958.14
2016-03-23T11:15:02.647Z,958.13
2016-03-23T11:16:02.635Z,958.13
2016-03-23T11:17:02.637Z,958.16
2016-03-23T11:18:02.639Z,958.16
2016-03-23T11:19:02.643Z,958.17
2016-03-23T11:20:02.645Z,958.15
2016-03-23T11:21:02.648Z,958.18
2016-03-23T11:22:02.651Z,958.21
2016-03-23T11:23:02.653Z,958.2
2016-03-23T11:24:02.656Z,958.2
2016-03-23T11:25:02.658Z,958.18
2016-03-23T11:26:02.646Z,958.2
2016-03-23T11:27:02.648Z,958.22
2016-03-23T11:28:02.651Z,958.23
2016-03-23T11:29:02.639Z,958.25
2016-03-23T11:30:02.641Z,958.21
2016-03-23T11:31:02.644Z,958.25
2016-03-23T11:32:02.647Z,958.24
2016-03-23T11:33:02.650Z,958.27
2016-03-23T11:34:02.652Z,958.23
2016-03-23T11:35:02.638Z,958.29
2016-03-23T11:36:02.642Z,958.25
2016-03-23T11:37:02.644Z,958.25
2016-03-23T11:38:02.647Z,958.23
2016-03-23T11:39:02.649Z,958.2
2016-03-23T11:40:02.652Z,958.18
2016-03-23T11:41:02.654Z,958.19
2016-03-23T11:42:02.642Z,958.13
2016-03-23T11:43:02.644Z,958.15
2016-03-23T11:44:02.646Z,958.17
2016-03-23T11:45:02.649Z,958.15
2016-03-23T11:46:02.652Z,958.15
2016-03-23T11:47:02.655Z,958.13
2016-03-23T11:48:02.642Z,958.14
2016-03-23T11:49:02.645Z,958.2
2016-03-23T11:50:02.648Z,958.2
2016-03-23T11:51:02.650Z,958.17
2016-03-23T11:52:02.654Z,958.2
2016-03-23T11:53:02.640Z,958.19
2016-03-23T11:54:02.643Z,958.22
2016-03-23T11:55:02.645Z,958.18
2016-03-23T11:56:02.648Z,958.24
2016-03-23T11:57:02.651Z,958.24
2016-03-23T11:58:02.653Z,958.23
2016-03-23T11:59:02.641Z,958.19
2016-03-23T12:00:02.644Z,958.23
2016-03-23T12:01:02.646Z,958.22
2016-03-23T12:02:02.650Z,958.26
2016-03-23T12:03:02.652Z,958.2
2016-03-23T12:04:02.654Z,958.24
2016-03-23T12:05:02.641Z,958.18
2016-03-23T12:06:02.644Z,958.21
2016-03-23T12:07:02.647Z,958.27
2016-03-23T12:08:02.649Z,958.21
2016-03-23T12:09:02.652Z,958.24
2016-03-23T12:10:02.654Z,958.2
2016-03-23T12:11:02.657Z,958.19
2016-03-23T12:12:02.644Z,958.15
2016-03-23T12:13:02.647Z,958.19
2016-03-23T12:14:02.665Z,958.15
2016-03-23T12:15:02.652Z,958.16
2016-03-23T12:16:02.655Z,958.18
2016-03-23T12:17:02.658Z,958.15
2016-03-23T12:18:02.645Z,958.16
2016-03-23T12:19:02.648Z,958.12
2016-03-23T12:20:02.650Z,958.15
2016-03-23T12:21:02.654Z,958.11
2016-03-23T12:22:02.656Z,958.13
2016-03-23T12:23:02.643Z,958.06
2016-03-23T12:24:02.645Z,958.12
2016-03-23T12:25:02.648Z,958.1
2016-03-23T12:26:02.651Z,958.06
2016-03-23T12:27:02.653Z,958.04
2016-03-23T12:28:02.656Z,958.03
2016-03-23T12:29:02.659Z,958.02
2016-03-23T12:30:02.645Z,958.01
2016-03-23T12:31:02.648Z,958.02